Lake Carmel, New York
Current Conditions -  °F | °C
As of 2:53 AM on Wednesday 26 Nov 2014 (Local Time) from KDXR Reporting Station
Clear Clear  
Wind Chill: 43°   Ceiling: Unl
Heat Index: 43°   Visibility: 10mi
Dew Point: 28°   Wind: 3mph
Humidity: 56%   Direction: NA
Pressure: 30.21"   Gusts: NA
Location:  41.447°N, 73.7115°W
Report Text: KDXR 260753Z AUTO VRB03KT 10SM CLR 06/M02 A3021 RMK AO2 SLP231 T00611022
Loading
Personal Weather Stations






























Interactive Weather Map New forecast layout! Learn more

10-Day Weather Forecast

Advertisements
Track Severe Weather on mobile